West Brooklyn, Illinois
Current Conditions -  °F | °C
As of 1:55 AM on Thursday 27 Nov 2014 (Local Time) from KRPJ Reporting Station
Haze Haze  
Wind Chill: 15°   Ceiling: 10000
Heat Index: 15°   Visibility: 4mi
Dew Point: 13°   Wind: 3mph
Humidity: 92%   Direction: 260°W
Pressure: 30.26"   Gusts: NA
Location:  41.69°N, 89.15°W
Report Text: KRPJ 270755Z AUTO 26003KT 4SM BR SCT085 OVC100 M09/M10 A3026 RMK AO2 T10941105
Loading
Personal Weather Stations






























Interactive Weather Map New forecast layout! Learn more

10-Day Weather Forecast

Advertisements
Track Severe Weather on mobile